CEST,Max TemperatureF,Mean TemperatureF,Min TemperatureF,Max Dew PointF,MeanDew PointF,Min DewpointF,Max Humidity, Mean Humidity, Min Humidity, Max Sea Level PressureIn, Mean Sea Level PressureIn, Min Sea Level PressureIn, Max VisibilityMiles, Mean VisibilityMiles, Min VisibilityMiles, Max Wind SpeedMPH, Mean Wind SpeedMPH, Max Gust SpeedMPH,PrecipitationIn, CloudCover, Events, WindDirDegrees
2011-9-1,91,80,69,75,68,61,94,73,36,29.89,29.84,29.80,6,6,6,14,3,,0.00,1,,9
2011-9-2,89,81,73,75,69,59,89,69,48,29.92,29.87,29.83,6,6,6,17,4,26,0.00,2,,249
2011-9-3,80,76,69,70,64,57,83,65,47,29.95,29.91,29.89,6,6,6,17,6,,0.00,2,Rain-Thunderstorm,209
2011-9-4,86,76,66,70,65,59,100,72,42,30.01,29.91,29.86,6,6,1,15,5,,0.00,1,Rain-Thunderstorm,235
2011-9-5,84,75,66,72,67,63,88,75,54,30.24,30.10,30.01,6,6,6,15,4,,0.00,1,,206
2011-9-6,84,76,69,70,67,63,94,73,48,30.27,30.24,30.21,6,6,6,14,6,,0.00,1,,122
2011-9-7,82,73,64,72,69,64,100,81,66,30.24,30.18,30.12,6,6,6,14,3,,0.00,1,,205
2011-9-8,82,74,66,72,69,64,100,81,62,30.12,30.06,30.01,6,6,6,16,4,,0.00,1,,205
2011-9-9,84,74,64,72,67,63,100,78,48,30.01,29.97,29.92,6,6,6,14,4,,0.00,1,,200
2011-9-10,93,78,62,72,65,59,94,70,36,30.01,29.94,29.92,6,6,6,13,3,,0.00,1,,88
2011-9-11,84,74,64,73,68,63,100,83,62,30.04,30.00,29.98,6,6,5,14,3,,0.00,2,Fog,199
2011-9-12,87,78,68,72,67,63,100,72,43,30.09,30.06,30.04,6,6,6,15,5,21,0.00,1,,50
2011-9-13,84,74,64,70,65,61,94,72,51,30.06,30.01,29.95,6,6,6,15,4,,0.00,1,,184
2011-9-14,89,76,64,70,65,57,94,68,35,30.01,29.99,29.98,6,6,6,15,4,,0.00,1,,48
2011-9-15,87,76,66,72,67,61,88,73,43,30.04,29.99,29.95,6,6,6,13,4,,0.00,1,,61
2011-9-16,84,74,64,70,68,64,100,79,55,30.04,30.02,29.98,6,6,6,13,4,,0.00,1,,226
2011-9-17,84,74,64,70,67,63,94,77,55,30.04,30.00,29.92,6,6,6,14,5,,0.00,1,,174
2011-9-18,84,74,64,73,66,61,94,76,45,29.98,29.86,29.80,6,6,4,23,6,34,0.00,3,Rain,24
2011-9-19,77,68,59,63,56,50,100,69,41,30.15,30.04,29.98,6,6,6,18,6,31,0.00,1,,331
2011-9-20,80,70,59,61,57,54,88,64,44,30.18,30.14,30.09,6,6,6,13,5,,0.00,2,,214
2011-9-21,80,70,59,64,60,57,94,70,51,30.15,30.11,30.06,6,6,6,13,4,,0.00,1,,224
2011-9-22,80,70,59,64,62,57,94,74,51,30.12,30.07,30.04,6,6,6,13,3,,0.00,1,,34
2011-9-23,82,70,59,66,62,50,100,74,32,30.06,30.02,29.98,6,6,6,15,3,,0.00,1,,179
2011-9-24,73,70,66,68,65,61,94,86,73,30.01,29.96,29.92,6,6,3,10,3,20,0.00,4,Rain,56
2011-9-25,80,74,68,68,65,63,88,70,54,30.15,30.08,30.01,6,6,6,10,6,,0.00,1,,85
2011-9-26,82,71,60,66,62,57,100,79,42,30.24,30.18,30.15,6,6,6,12,2,,0.00,2,,48
2011-9-27,84,72,60,68,63,57,100,77,40,30.27,30.24,30.21,6,6,6,13,3,,0.00,1,,50
2011-9-28,84,72,59,66,60,52,94,68,35,30.24,30.20,30.15,6,6,6,14,5,,0.00,1,,38
2011-9-29,86,75,64,68,65,59,100,78,40,30.21,30.18,30.15,6,6,2,14,3,15,0.00,2,Rain-Thunderstorm,58
2011-9-30,84,73,62,68,64,57,100,77,40,30.21,30.18,30.15,6,5,3,13,3,,0.00,2,Thunderstorm,75